createdAt,value
2023-03-24T00:00:20.584Z,2.17
2023-03-24T00:02:49.106Z,1.88
2023-03-24T00:05:21.623Z,2.33
2023-03-24T00:07:54.775Z,2.08
2023-03-24T00:10:22.709Z,1.88
2023-03-24T00:12:51.015Z,1.92
2023-03-24T00:15:21.180Z,2.08
2023-03-24T00:17:51.819Z,2.10
2023-03-24T00:20:20.842Z,2.30
2023-03-24T00:22:51.082Z,2.08
2023-03-24T00:25:20.302Z,1.80
2023-03-24T00:27:48.859Z,1.90
2023-03-24T00:30:17.508Z,2.23
2023-03-24T00:32:45.116Z,1.90
2023-03-24T00:35:14.775Z,1.90
2023-03-24T00:40:13.101Z,1.48
2023-03-24T00:42:41.332Z,1.95
2023-03-24T00:45:12.127Z,1.55
2023-03-24T00:47:39.222Z,1.95
2023-03-24T00:50:09.768Z,1.80
2023-03-24T00:52:37.896Z,1.85
2023-03-24T00:55:06.218Z,1.83
2023-03-24T00:57:35.979Z,1.60
2023-03-24T01:02:43.912Z,1.42
2023-03-24T01:05:11.247Z,1.70
2023-03-24T01:07:41.549Z,2.15
2023-03-24T01:10:13.084Z,1.73
2023-03-24T01:12:40.880Z,1.55
2023-03-24T01:15:19.921Z,2.00
2023-03-24T01:17:48.682Z,1.75
2023-03-24T01:20:16.173Z,1.75
2023-03-24T01:22:45.042Z,1.83
2023-03-24T01:25:17.809Z,1.67
2023-03-24T01:27:46.629Z,1.92
2023-03-24T01:30:16.108Z,1.85
2023-03-24T01:35:11.806Z,1.90
2023-03-24T01:37:39.265Z,1.90
2023-03-24T01:40:11.357Z,1.75
2023-03-24T01:42:39.560Z,1.83
2023-03-24T01:45:38.610Z,1.30
2023-03-24T01:48:15.493Z,1.60
2023-03-24T01:50:46.667Z,1.70
2023-03-24T01:53:13.700Z,1.70
2023-03-24T01:55:40.542Z,1.73
2023-03-24T01:58:08.841Z,1.45
2023-03-24T02:00:51.202Z,1.80
2023-03-24T02:03:40.115Z,2.10
2023-03-24T02:06:08.678Z,1.70
2023-03-24T02:08:50.748Z,1.80
2023-03-24T02:11:17.495Z,1.83
2023-03-24T02:13:51.506Z,1.60
2023-03-24T02:16:33.011Z,1.50
2023-03-24T02:19:25.204Z,1.60
2023-03-24T02:22:26.414Z,1.73
2023-03-24T02:25:44.103Z,1.70
2023-03-24T02:28:27.995Z,1.40
2023-03-24T02:31:16.291Z,1.83
2023-03-24T02:34:13.543Z,2.13
2023-03-24T02:36:55.402Z,2.10
2023-03-24T02:39:53.293Z,1.80
2023-03-24T02:42:40.153Z,3.30
2023-03-24T02:45:12.912Z,1.80
2023-03-24T02:47:58.163Z,1.70
2023-03-24T02:50:53.838Z,2.00
2023-03-24T02:53:33.009Z,1.98
2023-03-24T02:56:33.407Z,1.83
2023-03-24T02:59:32.542Z,2.22
2023-03-24T03:02:08.605Z,1.90
2023-03-24T03:04:57.960Z,2.05
2023-03-24T03:07:27.370Z,2.30
2023-03-24T03:10:02.415Z,2.53
2023-03-24T03:12:34.786Z,2.30
2023-03-24T03:15:15.970Z,2.38
2023-03-24T03:17:53.506Z,2.20
2023-03-24T03:20:24.296Z,2.10
2023-03-24T03:23:00.855Z,2.35
2023-03-24T03:25:33.174Z,2.83
2023-03-24T03:28:03.680Z,2.40
2023-03-24T03:30:40.129Z,2.60
2023-03-24T03:33:13.258Z,2.80
2023-03-24T03:36:02.956Z,2.70
2023-03-24T03:39:09.703Z,2.80
2023-03-24T03:41:38.606Z,2.85
2023-03-24T03:44:05.517Z,2.88
2023-03-24T03:46:32.623Z,3.80
2023-03-24T03:48:59.859Z,2.67
2023-03-24T03:51:27.148Z,3.08
2023-03-24T03:54:01.157Z,3.20
2023-03-24T03:56:32.560Z,2.75
2023-03-24T03:59:35.453Z,3.15
2023-03-24T04:05:14.695Z,2.90
2023-03-24T04:11:17.957Z,3.08
2023-03-24T04:14:22.925Z,2.65
2023-03-24T04:17:41.650Z,2.90
2023-03-24T04:20:14.728Z,3.25
2023-03-24T04:23:09.356Z,3.60
2023-03-24T04:25:49.878Z,2.80
2023-03-24T04:28:26.513Z,3.17
2023-03-24T04:31:28.103Z,2.90
2023-03-24T04:34:07.606Z,2.70
2023-03-24T04:37:04.069Z,2.95
2023-03-24T04:39:58.895Z,2.40
2023-03-24T04:42:36.129Z,2.58
2023-03-24T04:45:05.756Z,2.60
2023-03-24T04:48:00.254Z,2.60
2023-03-24T04:50:40.484Z,2.50
2023-03-24T04:53:13.332Z,2.72
2023-03-24T04:55:49.472Z,2.50
2023-03-24T04:58:22.884Z,2.53
2023-03-24T05:00:50.435Z,2.38
2023-03-24T05:03:18.767Z,2.70
2023-03-24T05:05:48.365Z,2.50
2023-03-24T05:08:16.561Z,2.55
2023-03-24T05:10:43.749Z,1.88
2023-03-24T05:13:11.494Z,2.90
2023-03-24T05:15:40.579Z,2.70
2023-03-24T05:18:27.405Z,2.72
2023-03-24T05:20:56.351Z,2.40
2023-03-24T05:23:23.216Z,2.88
2023-03-24T05:25:50.666Z,3.08
2023-03-24T05:28:19.269Z,3.10
2023-03-24T05:30:46.708Z,3.33
2023-03-24T05:33:33.649Z,3.38
2023-03-24T05:36:01.248Z,3.72
2023-03-24T05:38:28.350Z,4.05
2023-03-24T05:40:58.189Z,4.10
2023-03-24T05:43:28.544Z,3.53
2023-03-24T05:46:03.998Z,3.97
2023-03-24T05:51:17.677Z,3.78
2023-03-24T05:53:45.936Z,3.57
2023-03-24T05:58:58.772Z,4.25
2023-03-24T06:01:43.345Z,4.53
2023-03-24T06:04:21.078Z,4.43
2023-03-24T06:06:49.457Z,4.15
2023-03-24T06:09:20.342Z,4.00
2023-03-24T06:11:47.126Z,3.00
2023-03-24T06:14:14.746Z,2.92
2023-03-24T06:16:53.321Z,2.50
2023-03-24T06:19:22.615Z,2.45
2023-03-24T06:22:02.956Z,2.28
2023-03-24T06:24:34.419Z,1.40
2023-03-24T06:27:08.948Z,1.40
2023-03-24T06:32:03.599Z,0.90
2023-03-24T06:34:38.850Z,0.80
2023-03-24T06:37:16.918Z,0.60
2023-03-24T06:39:43.978Z,0.85
2023-03-24T06:42:14.680Z,0.80
2023-03-24T06:44:42.022Z,0.88
2023-03-24T06:47:08.718Z,0.75
2023-03-24T06:49:37.146Z,1.00
2023-03-24T06:52:04.782Z,1.08
2023-03-24T06:54:34.300Z,1.30
2023-03-24T06:57:01.932Z,1.45
2023-03-24T06:59:49.163Z,1.40
2023-03-24T07:02:15.914Z,1.33
2023-03-24T07:04:45.796Z,1.00
2023-03-24T07:12:41.510Z,1.67
2023-03-24T07:15:09.382Z,2.20
2023-03-24T07:17:36.349Z,2.58
2023-03-24T07:20:12.424Z,2.70
2023-03-24T07:22:42.413Z,3.05
2023-03-24T07:25:24.560Z,3.53
2023-03-24T07:28:14.319Z,2.33
2023-03-24T07:30:41.748Z,3.63
2023-03-24T07:33:12.744Z,2.72
2023-03-24T07:35:41.930Z,3.58
2023-03-24T07:38:10.648Z,3.20
2023-03-24T07:40:37.889Z,2.70
2023-03-24T07:43:05.882Z,2.67
2023-03-24T07:45:51.610Z,2.80
2023-03-24T07:48:18.407Z,2.90
2023-03-24T07:50:45.362Z,2.83
2023-03-24T07:53:33.822Z,3.03
2023-03-24T07:56:00.809Z,2.90
2023-03-24T07:58:27.944Z,3.00
2023-03-24T08:01:10.478Z,2.95
2023-03-24T08:03:42.575Z,2.40
2023-03-24T08:06:15.640Z,2.90
2023-03-24T08:08:50.504Z,2.55
2023-03-24T08:11:17.157Z,2.92
2023-03-24T08:13:43.793Z,3.10
2023-03-24T08:16:10.589Z,2.70
2023-03-24T08:18:37.198Z,2.88
2023-03-24T08:21:03.861Z,3.42
2023-03-24T08:23:30.445Z,2.72
2023-03-24T08:25:57.318Z,2.97
2023-03-24T08:28:23.986Z,2.80
2023-03-24T08:30:50.868Z,2.67
2023-03-24T08:33:17.943Z,3.90
2023-03-24T08:35:48.234Z,3.40
2023-03-24T08:38:18.577Z,2.88
2023-03-24T08:40:45.985Z,3.83
2023-03-24T08:43:15.996Z,2.65
2023-03-24T08:45:42.943Z,3.30
2023-03-24T08:48:09.982Z,2.92
2023-03-24T08:50:41.014Z,2.85
2023-03-24T08:53:08.782Z,2.83
2023-03-24T08:55:37.891Z,2.85
2023-03-24T08:58:04.777Z,2.75
2023-03-24T09:00:31.524Z,2.78
2023-03-24T09:02:58.665Z,2.47
2023-03-24T09:05:40.685Z,3.38
2023-03-24T09:08:12.381Z,2.85
2023-03-24T09:10:39.951Z,2.20
2023-03-24T09:13:07.018Z,1.95
2023-03-24T09:15:33.732Z,2.25
2023-03-24T09:18:00.827Z,2.08
2023-03-24T09:20:27.474Z,2.60
2023-03-24T09:22:55.851Z,2.47
2023-03-24T09:25:23.812Z,2.38
2023-03-24T09:27:50.453Z,2.63
2023-03-24T09:30:18.216Z,2.40
2023-03-24T09:32:45.879Z,2.03
2023-03-24T09:35:13.179Z,2.63
2023-03-24T09:37:41.119Z,2.05
2023-03-24T09:40:08.246Z,1.98
2023-03-24T09:42:41.541Z,2.50
2023-03-24T09:45:18.165Z,1.70
2023-03-24T09:47:52.542Z,1.90
2023-03-24T09:50:43.307Z,2.47
2023-03-24T09:53:29.235Z,1.80
2023-03-24T09:55:57.379Z,1.77
2023-03-24T09:58:29.671Z,1.67
2023-03-24T10:00:57.620Z,1.90
2023-03-24T10:03:24.494Z,1.63
2023-03-24T10:06:26.664Z,2.17
2023-03-24T10:09:15.762Z,2.20
2023-03-24T10:12:00.610Z,2.15
2023-03-24T10:14:45.351Z,1.85
2023-03-24T10:17:23.934Z,2.35
2023-03-24T10:20:09.389Z,2.00
2023-03-24T10:22:54.623Z,1.30
2023-03-24T10:25:30.953Z,1.80
2023-03-24T10:28:16.865Z,2.00
2023-03-24T10:30:46.228Z,2.00
2023-03-24T10:33:15.022Z,1.85
2023-03-24T10:35:51.745Z,1.98
2023-03-24T10:38:21.272Z,1.58
2023-03-24T10:40:48.908Z,1.48
2023-03-24T10:43:19.492Z,1.75
2023-03-24T10:45:52.443Z,1.65
2023-03-24T10:48:43.176Z,1.95
2023-03-24T10:51:19.416Z,1.42
2023-03-24T10:53:48.701Z,1.92
2023-03-24T10:56:38.306Z,2.65
2023-03-24T10:59:19.050Z,1.70
2023-03-24T11:01:46.671Z,2.28
2023-03-24T11:04:16.898Z,1.42
2023-03-24T11:07:11.243Z,1.38
2023-03-24T11:09:46.521Z,1.38
2023-03-24T11:12:28.102Z,1.65
2023-03-24T11:15:20.981Z,2.17
2023-03-24T11:18:01.823Z,1.65
2023-03-24T11:20:43.818Z,1.50
2023-03-24T11:23:31.315Z,2.08
2023-03-24T11:26:06.950Z,1.25
2023-03-24T11:28:39.267Z,1.70
2023-03-24T11:31:09.130Z,1.77
2023-03-24T11:34:02.770Z,1.90
2023-03-24T11:36:38.249Z,1.83
2023-03-24T11:39:18.018Z,1.70
2023-03-24T11:42:03.347Z,2.00
2023-03-24T11:44:49.298Z,1.40
2023-03-24T11:47:32.584Z,2.13
2023-03-24T11:50:12.100Z,2.08
2023-03-24T11:55:37.808Z,1.40
2023-03-24T11:58:21.517Z,2.00
2023-03-24T12:01:04.432Z,1.58
2023-03-24T12:04:02.517Z,2.83
2023-03-24T12:07:07.610Z,2.10
2023-03-24T12:10:06.225Z,1.60
2023-03-24T12:13:08.371Z,2.08
2023-03-24T12:15:50.736Z,1.65
2023-03-24T12:18:41.520Z,2.28
2023-03-24T12:21:19.475Z,2.53
2023-03-24T12:23:59.628Z,1.48
2023-03-24T12:26:31.140Z,2.10
2023-03-24T12:29:29.799Z,1.67
2023-03-24T12:32:24.875Z,1.70
2023-03-24T12:35:06.718Z,1.90
2023-03-24T12:37:52.583Z,1.70
2023-03-24T12:40:40.926Z,1.92
2023-03-24T12:43:29.885Z,1.48
2023-03-24T12:46:00.042Z,1.90
2023-03-24T12:48:36.068Z,1.30
2023-03-24T12:51:35.601Z,1.90
2023-03-24T12:54:17.337Z,1.80
2023-03-24T12:57:08.144Z,1.70
2023-03-24T12:59:41.626Z,1.50
2023-03-24T13:02:21.565Z,1.20
2023-03-24T13:04:49.504Z,1.45
2023-03-24T13:07:25.916Z,1.45
2023-03-24T13:10:19.079Z,1.58
2023-03-24T13:13:24.514Z,1.55
2023-03-24T13:16:17.640Z,1.00
2023-03-24T13:18:51.681Z,1.52
2023-03-24T13:21:21.212Z,1.63
2023-03-24T13:23:59.342Z,1.30
2023-03-24T13:26:39.778Z,1.70
2023-03-24T13:29:24.831Z,1.67
2023-03-24T13:31:57.710Z,1.70
2023-03-24T13:34:30.031Z,1.58
2023-03-24T13:37:06.606Z,1.55
2023-03-24T13:39:36.484Z,1.30
2023-03-24T13:42:03.927Z,1.40
2023-03-24T13:44:38.516Z,1.33
2023-03-24T13:47:06.849Z,1.25
2023-03-24T13:49:34.203Z,1.30
2023-03-24T13:52:06.551Z,1.42
2023-03-24T13:54:37.676Z,1.50
2023-03-24T13:57:08.467Z,2.10
2023-03-24T14:00:08.602Z,1.75
2023-03-24T14:02:49.938Z,1.27
2023-03-24T14:05:23.948Z,2.00
2023-03-24T14:08:11.663Z,1.85
2023-03-24T14:10:44.536Z,1.60
2023-03-24T14:13:14.174Z,1.77
2023-03-24T14:15:45.380Z,1.45
2023-03-24T14:18:22.547Z,1.50
2023-03-24T14:20:58.351Z,1.65
2023-03-24T14:23:45.730Z,1.48
2023-03-24T14:26:12.376Z,1.70
2023-03-24T14:28:50.561Z,1.50
2023-03-24T14:31:29.014Z,1.73
2023-03-24T14:34:03.478Z,1.42
2023-03-24T14:36:40.033Z,1.63
2023-03-24T14:39:21.524Z,1.30
2023-03-24T14:41:51.965Z,1.77
2023-03-24T14:44:47.078Z,2.15
2023-03-24T14:47:20.258Z,1.80
2023-03-24T14:49:48.705Z,2.38
2023-03-24T14:52:24.392Z,1.60
2023-03-24T14:54:59.429Z,2.20
2023-03-24T14:57:32.261Z,2.08
2023-03-24T15:00:11.809Z,2.38
2023-03-24T15:02:50.880Z,0.90
2023-03-24T15:05:23.126Z,0.82
2023-03-24T15:08:13.734Z,0.60
2023-03-24T15:10:58.269Z,0.90
2023-03-24T15:13:30.264Z,0.90
2023-03-24T15:15:57.754Z,0.60
2023-03-24T15:18:25.746Z,0.65
2023-03-24T15:20:53.386Z,1.02
2023-03-24T15:23:31.384Z,0.70
2023-03-24T15:25:58.043Z,0.40
2023-03-24T15:28:26.716Z,0.50
2023-03-24T15:30:56.039Z,0.60
2023-03-24T15:33:23.448Z,0.85
2023-03-24T15:35:56.678Z,0.80
2023-03-24T15:38:32.911Z,0.52
2023-03-24T15:40:59.498Z,0.80
2023-03-24T15:43:26.096Z,0.73
2023-03-24T15:46:04.573Z,1.10
2023-03-24T15:48:38.170Z,0.98
2023-03-24T15:51:08.726Z,0.75
2023-03-24T15:53:44.363Z,0.73
2023-03-24T15:56:31.969Z,0.50
2023-03-24T15:59:13.759Z,0.57
2023-03-24T16:01:44.015Z,0.60
2023-03-24T16:04:15.927Z,0.57
2023-03-24T16:06:50.093Z,0.57
2023-03-24T16:09:27.473Z,0.40
2023-03-24T16:11:54.455Z,0.50
2023-03-24T16:14:25.720Z,0.40
2023-03-24T16:16:57.270Z,0.60
2023-03-24T16:19:25.308Z,0.40
2023-03-24T16:21:52.010Z,0.60
2023-03-24T16:24:18.606Z,0.73
2023-03-24T16:26:46.196Z,0.73
2023-03-24T16:29:23.615Z,0.95
2023-03-24T16:31:52.389Z,0.60
2023-03-24T16:34:21.204Z,0.70
2023-03-24T16:36:49.616Z,0.80
2023-03-24T16:39:19.345Z,1.10
2023-03-24T16:41:46.364Z,0.93
2023-03-24T16:44:13.496Z,0.80
2023-03-24T16:46:41.198Z,0.82
2023-03-24T16:49:11.502Z,1.00
2023-03-24T16:51:38.202Z,1.15
2023-03-24T16:54:04.927Z,1.15
2023-03-24T16:56:31.755Z,0.90
2023-03-24T16:58:58.472Z,0.88
2023-03-24T17:01:33.405Z,1.10
2023-03-24T17:04:01.776Z,0.80
2023-03-24T17:06:30.770Z,0.90
2023-03-24T17:08:58.141Z,1.10
2023-03-24T17:11:36.618Z,1.10
2023-03-24T17:14:05.545Z,1.00
2023-03-24T17:16:36.732Z,0.98
2023-03-24T17:19:06.867Z,1.20
2023-03-24T17:21:47.354Z,1.23
2023-03-24T17:24:14.369Z,1.10
2023-03-24T17:26:42.410Z,1.40
2023-03-24T17:29:13.465Z,1.30
2023-03-24T17:31:42.976Z,1.48
2023-03-24T17:34:21.463Z,1.63
2023-03-24T17:36:50.527Z,1.80
2023-03-24T17:39:18.624Z,1.70
2023-03-24T17:41:45.592Z,1.40
2023-03-24T17:44:12.300Z,1.60
2023-03-24T17:46:39.037Z,1.55
2023-03-24T17:49:06.346Z,1.67
2023-03-24T17:51:33.100Z,2.05
2023-03-24T17:53:59.940Z,2.20
2023-03-24T17:56:26.944Z,1.88
2023-03-24T17:58:55.117Z,2.33
2023-03-24T18:01:22.194Z,2.40
2023-03-24T18:03:49.797Z,2.50
2023-03-24T18:06:17.187Z,2.20
2023-03-24T18:08:44.352Z,2.35
2023-03-24T18:11:14.996Z,2.10
2023-03-24T18:13:42.965Z,2.25
2023-03-24T18:16:20.750Z,2.70
2023-03-24T18:18:50.276Z,2.65
2023-03-24T18:21:18.205Z,2.05
2023-03-24T18:23:46.538Z,2.70
2023-03-24T18:26:14.162Z,1.90
2023-03-24T18:28:42.035Z,2.22
2023-03-24T18:31:20.882Z,2.00
2023-03-24T18:33:49.282Z,2.60
2023-03-24T18:36:21.070Z,2.20
2023-03-24T18:38:49.000Z,2.33
2023-03-24T18:41:18.038Z,2.63
2023-03-24T18:43:47.627Z,2.97
2023-03-24T18:46:14.909Z,2.70
2023-03-24T18:48:42.661Z,2.22
2023-03-24T18:51:11.174Z,1.65
2023-03-24T18:53:38.041Z,1.33
2023-03-24T18:56:06.034Z,0.98
2023-03-24T18:58:33.671Z,1.40
2023-03-24T19:01:06.903Z,1.10
2023-03-24T19:03:35.621Z,1.08
2023-03-24T19:06:06.940Z,1.10
2023-03-24T19:08:36.003Z,1.25
2023-03-24T19:11:02.853Z,1.50
2023-03-24T19:13:29.972Z,2.15
2023-03-24T19:15:56.609Z,1.33
2023-03-24T19:18:23.846Z,1.70
2023-03-24T19:20:54.486Z,3.65
2023-03-24T19:23:21.367Z,1.90
2023-03-24T19:25:48.662Z,1.10
2023-03-24T19:28:16.514Z,1.25
2023-03-24T19:30:43.231Z,1.50
2023-03-24T19:33:11.453Z,1.20
2023-03-24T19:35:39.363Z,0.90
2023-03-24T19:38:06.516Z,1.92
2023-03-24T19:40:33.490Z,1.13
2023-03-24T19:43:00.183Z,1.50
2023-03-24T19:45:27.041Z,1.10
2023-03-24T19:47:53.656Z,1.33
2023-03-24T19:50:20.529Z,1.90
2023-03-24T19:52:47.727Z,1.27
2023-03-24T19:55:14.680Z,1.75
2023-03-24T19:57:41.388Z,1.20
2023-03-24T20:00:10.205Z,1.08
2023-03-24T20:02:38.164Z,1.20
2023-03-24T20:05:06.820Z,1.50
2023-03-24T20:07:33.920Z,1.15
2023-03-24T20:10:00.645Z,1.65
2023-03-24T20:12:27.974Z,1.30
2023-03-24T20:14:55.639Z,1.23
2023-03-24T20:17:26.351Z,1.30
2023-03-24T20:19:54.593Z,1.30
2023-03-24T20:22:21.731Z,1.40
2023-03-24T20:24:48.555Z,1.50
2023-03-24T20:27:16.098Z,1.40
2023-03-24T20:29:42.782Z,1.40
2023-03-24T20:32:12.167Z,1.83
2023-03-24T20:34:39.418Z,1.65
2023-03-24T20:37:07.151Z,1.63
2023-03-24T20:39:34.311Z,1.40
2023-03-24T20:42:01.113Z,1.17
2023-03-24T20:44:28.117Z,1.40
2023-03-24T20:46:57.123Z,1.40
2023-03-24T20:49:24.300Z,1.60
2023-03-24T20:51:51.560Z,1.40
2023-03-24T20:54:18.375Z,1.30
2023-03-24T20:56:45.063Z,1.65
2023-03-24T20:59:13.800Z,1.48
2023-03-24T21:01:42.210Z,1.30
2023-03-24T21:04:10.017Z,1.83
2023-03-24T21:06:40.629Z,1.42
2023-03-24T21:09:07.546Z,1.30
2023-03-24T21:11:34.341Z,1.10
2023-03-24T21:14:02.624Z,1.30
2023-03-24T21:16:33.993Z,1.42
2023-03-24T21:19:01.924Z,1.60
2023-03-24T21:21:29.698Z,1.48
2023-03-24T21:23:57.477Z,1.20
2023-03-24T21:26:25.297Z,1.25
2023-03-24T21:28:52.931Z,1.05
2023-03-24T21:31:23.193Z,1.10
2023-03-24T21:33:51.171Z,1.52
2023-03-24T21:36:18.579Z,1.20
2023-03-24T21:38:46.009Z,1.50
2023-03-24T21:41:12.687Z,1.10
2023-03-24T21:43:40.509Z,1.25
2023-03-24T21:46:20.351Z,1.55
2023-03-24T21:48:51.821Z,1.48
2023-03-24T21:51:24.574Z,1.30
2023-03-24T21:53:55.668Z,1.23
2023-03-24T21:56:23.206Z,1.15
2023-03-24T21:58:49.770Z,1.63
2023-03-24T22:01:16.763Z,1.13
2023-03-24T22:03:43.512Z,1.50
2023-03-24T22:06:10.747Z,1.70
2023-03-24T22:08:39.057Z,1.23
2023-03-24T22:11:06.102Z,1.05
2023-03-24T22:13:33.783Z,1.23
2023-03-24T22:16:03.062Z,1.20
2023-03-24T22:18:32.049Z,1.17
2023-03-24T22:21:03.111Z,1.45
2023-03-24T22:23:33.177Z,1.35
2023-03-24T22:26:05.302Z,1.45
2023-03-24T22:28:33.770Z,1.45
2023-03-24T22:31:08.339Z,1.77
2023-03-24T22:33:36.181Z,1.15
2023-03-24T22:36:03.896Z,1.45
2023-03-24T22:38:31.513Z,1.10
2023-03-24T22:40:59.836Z,1.63
2023-03-24T22:43:28.046Z,1.25
2023-03-24T22:45:54.893Z,1.38
2023-03-24T22:48:22.245Z,1.13
2023-03-24T22:50:49.229Z,1.27
2023-03-24T22:53:16.114Z,1.58
2023-03-24T22:55:44.869Z,1.73
2023-03-24T22:58:15.460Z,0.98
2023-03-24T23:00:43.287Z,1.40
2023-03-24T23:03:10.352Z,1.58
2023-03-24T23:05:45.379Z,1.17
2023-03-24T23:08:15.479Z,1.50
2023-03-24T23:10:44.322Z,1.10
2023-03-24T23:13:12.210Z,1.30
2023-03-24T23:15:39.964Z,1.33
2023-03-24T23:18:06.790Z,1.30
2023-03-24T23:20:34.409Z,1.60
2023-03-24T23:23:01.435Z,1.08
2023-03-24T23:25:30.977Z,1.63
2023-03-24T23:27:58.146Z,1.30
2023-03-24T23:30:24.787Z,1.38
2023-03-24T23:32:51.716Z,1.20
2023-03-24T23:35:18.772Z,1.30
2023-03-24T23:37:45.611Z,1.40
2023-03-24T23:40:14.681Z,1.52
2023-03-24T23:42:43.682Z,1.10
2023-03-24T23:45:15.096Z,1.17
2023-03-24T23:47:43.201Z,1.00
2023-03-24T23:50:10.784Z,1.27
2023-03-24T23:52:41.118Z,1.23
2023-03-24T23:55:10.444Z,1.15
2023-03-24T23:57:39.312Z,1.30
